Taipak, Kazakhstan
Current Conditions -  °F | °C
As of 7:30 PM on Sunday 23 Nov 2014 (Local Time) from UATG Reporting Station
Clear Clear  
Wind Chill: 10°   Ceiling: Unl
Heat Index: 21°   Visibility: 6mi
Dew Point: 18°   Wind: 11mph
Humidity: 86%   Direction: 360°N
Pressure: 30.12"   Gusts: NA
Location:  49.05°N, 51.87°E
Report Text: UATG 231530Z 36005MPS CAVOK M06/M08 Q1020 R32/CLRD70 NOSIG RMKQFE767/1023
Loading
Personal Weather Stations






























Interactive Weather Map New forecast layout! Learn more

10-Day Weather Forecast

Advertisements
Track Severe Weather on mobile